Time;durP1;ratioP1;P1;durP2;ratioP2;P2;SDS_P1;SDS_P2;PMS_P1;PMS_P2;Temp;Humidity;BMP_temperature;BMP_pressure;BME280_temperature;BME280_humidity;BME280_pressure;Samples;Min_cycle;Max_cycle;Signal;HPM_P1;HPM_P2
2023/10/24 00:02:54;;;;;;;28.20;12.50;;;;;;;5.16;100.00;99730.52;109099;1257;75145;-69
2023/10/24 00:05:41;;;;;;;29.20;12.50;;;;;;;5.14;100.00;99730.49;109081;1257;57950;-67
2023/10/24 00:08:29;;;;;;;24.60;12.00;;;;;;;5.10;100.00;99731.21;109100;1257;60626;-65
2023/10/24 00:11:17;;;;;;;27.10;11.50;;;;;;;5.14;100.00;99729.60;109098;1257;73146;-66
2023/10/24 00:14:04;;;;;;;22.70;10.50;;;;;;;5.17;100.00;99731.55;109110;1257;67135;-66
2023/10/24 00:16:52;;;;;;;22.00;11.00;;;;;;;5.19;100.00;99730.33;109038;1257;72755;-66
2023/10/24 00:19:40;;;;;;;22.90;10.30;;;;;;;5.18;100.00;99734.81;109020;1257;58006;-68
2023/10/24 00:22:28;;;;;;;21.90;10.50;;;;;;;5.14;100.00;99738.59;109104;1258;59400;-66
2023/10/24 00:25:16;;;;;;;22.10;10.60;;;;;;;5.10;100.00;99738.06;109046;1257;73093;-65
2023/10/24 00:28:04;;;;;;;23.60;10.40;;;;;;;5.08;100.00;99738.91;109127;1257;66205;-67
2023/10/24 00:30:51;;;;;;;21.10;9.20;;;;;;;5.06;100.00;99734.98;109083;1257;72425;-70
2023/10/24 00:33:39;;;;;;;18.30;8.60;;;;;;;5.06;100.00;99733.36;109013;1257;58076;-65
2023/10/24 00:36:27;;;;;;;19.50;8.80;;;;;;;5.07;100.00;99731.58;109071;1257;58747;-68
2023/10/24 00:39:15;;;;;;;17.00;8.10;;;;;;;5.08;100.00;99725.02;109007;1257;73933;-67
2023/10/24 00:42:05;;;;;;;13.70;6.70;;;;;;;5.12;100.00;99729.89;109049;1257;70012;-66
2023/10/24 00:44:54;;;;;;;13.10;6.60;;;;;;;5.14;100.00;99724.13;109066;1257;71585;-68
2023/10/24 00:47:43;;;;;;;14.50;7.00;;;;;;;5.17;100.00;99724.16;109075;1257;59667;-64
2023/10/24 00:50:33;;;;;;;16.20;6.50;;;;;;;5.22;100.00;99726.66;109141;1257;60210;-67
2023/10/24 00:53:22;;;;;;;16.90;6.50;;;;;;;5.26;100.00;99727.13;109135;1257;73110;-68
2023/10/24 00:56:11;;;;;;;14.80;6.40;;;;;;;5.28;100.00;99726.60;109023;1257;68778;-66
2023/10/24 00:59:02;;;;;;;13.70;5.10;;;;;;;5.28;100.00;99720.09;109041;1257;72583;-66
2023/10/24 01:01:52;;;;;;;14.40;6.70;;;;;;;5.29;100.00;99718.29;108972;1257;60970;-66
2023/10/24 01:04:42;;;;;;;13.60;6.00;;;;;;;5.31;100.00;99718.20;108981;1257;60163;-67
2023/10/24 01:07:32;;;;;;;13.80;5.80;;;;;;;5.32;100.00;99720.08;109040;1257;72990;-66
2023/10/24 01:10:41;;;;;;;14.50;5.90;;;;;;;5.34;100.00;99724.16;108783;1260;65419;-68
2023/10/24 01:13:32;;;;;;;13.90;6.30;;;;;;;5.38;100.00;99725.88;108879;1260;73680;-68
2023/10/24 01:16:21;;;;;;;11.50;5.70;;;;;;;5.41;100.00;99723.02;108800;1260;59643;-68
2023/10/24 01:19:13;;;;;;;14.50;5.40;;;;;;;5.45;100.00;99724.02;108846;1260;59125;-65
2023/10/24 01:22:02;;;;;;;12.20;5.40;;;;;;;5.47;100.00;99724.03;108879;1260;72761;-65
2023/10/24 01:24:50;;;;;;;12.30;5.40;;;;;;;5.48;100.00;99719.23;108940;1260;67863;-66
2023/10/24 01:27:41;;;;;;;12.30;4.80;;;;;;;5.52;100.00;99719.52;108893;1260;73693;-66
2023/10/24 01:30:30;;;;;;;13.40;5.00;;;;;;;5.50;100.00;99711.73;108992;1257;58220;-66
2023/10/24 01:33:18;;;;;;;12.90;4.90;;;;;;;5.56;100.00;99714.55;109045;1257;59076;-65
2023/10/24 01:36:06;;;;;;;12.40;4.30;;;;;;;5.60;100.00;99713.23;108953;1257;73125;-66
2023/10/24 01:38:53;;;;;;;11.30;5.00;;;;;;;5.63;100.00;99712.88;109129;1257;67902;-69
2023/10/24 01:41:42;;;;;;;10.60;4.50;;;;;;;5.65;100.00;99708.14;109048;1257;71816;-67
2023/10/24 01:44:29;;;;;;;11.10;4.70;;;;;;;5.66;100.00;99708.65;109049;1257;57215;-67
2023/10/24 01:47:16;;;;;;;12.80;4.90;;;;;;;5.64;100.00;99707.37;109099;1257;60289;-67
2023/10/24 01:50:05;;;;;;;13.00;5.00;;;;;;;5.60;100.00;99712.17;109037;1257;73961;-67
2023/10/24 01:52:56;;;;;;;13.30;5.10;;;;;;;5.55;100.00;99712.64;109085;1257;68296;-67
2023/10/24 01:55:43;;;;;;;13.30;5.20;;;;;;;5.51;100.00;99712.38;109053;1257;70633;-70
2023/10/24 01:58:31;;;;;;;13.30;5.00;;;;;;;5.46;100.00;99711.27;109124;1257;59576;-66
2023/10/24 02:01:19;;;;;;;11.70;4.90;;;;;;;5.45;100.00;99712.23;109115;1257;59054;-65
2023/10/24 02:04:08;;;;;;;9.40;4.40;;;;;;;5.44;100.00;99709.27;108955;1257;74435;-66
2023/10/24 02:07:01;;;;;;;10.70;4.60;;;;;;;5.44;100.00;99709.13;109125;1257;68011;-69
2023/10/24 02:09:50;;;;;;;10.50;4.60;;;;;;;5.45;100.00;99710.48;109034;1257;72736;-68
2023/10/24 02:12:37;;;;;;;10.70;4.60;;;;;;;5.46;100.00;99708.27;109053;1257;58078;-65
2023/10/24 02:15:25;;;;;;;13.20;5.40;;;;;;;5.44;100.00;99706.44;109136;1257;60654;-66
2023/10/24 02:18:13;;;;;;;10.40;4.40;;;;;;;5.43;100.00;99705.98;109129;1257;73116;-65
2023/10/24 02:21:08;;;;;;;12.50;4.80;;;;;;;5.42;100.00;99703.61;109099;1257;69014;-66
2023/10/24 02:23:57;;;;;;;12.80;5.00;;;;;;;5.42;100.00;99700.44;109100;1257;72146;-65
2023/10/24 02:26:44;;;;;;;11.80;5.10;;;;;;;5.42;100.00;99701.52;109027;1257;59582;-66
2023/10/24 02:29:33;;;;;;;28.40;12.00;;;;;;;5.38;100.00;99700.01;109124;1258;60052;-66
2023/10/24 02:32:20;;;;;;;18.70;8.10;;;;;;;5.36;100.00;99699.05;109056;1257;73117;-65
2023/10/24 02:35:08;;;;;;;15.10;7.00;;;;;;;5.35;100.00;99700.19;109080;1257;66528;-65
2023/10/24 02:37:56;;;;;;;20.30;7.90;;;;;;;5.33;100.00;99701.17;108923;1257;71866;-67
2023/10/24 02:40:53;;;;;;;21.80;8.90;;;;;;;5.32;100.00;99698.45;108903;1260;59029;-66
2023/10/24 02:43:41;;;;;;;18.20;7.00;;;;;;;5.31;100.00;99699.34;108971;1260;59211;-67
2023/10/24 02:46:28;;;;;;;15.10;5.50;;;;;;;5.29;100.00;99701.57;108909;1260;71915;-67
2023/10/24 02:49:16;;;;;;;10.00;5.00;;;;;;;5.23;100.00;99700.75;108890;1260;68009;-67
2023/10/24 02:52:04;;;;;;;13.40;5.00;;;;;;;5.18;100.00;99694.52;108846;1260;73555;-67
2023/10/24 02:54:52;;;;;;;11.20;4.80;;;;;;;5.16;100.00;99691.86;108822;1262;59363;-67
2023/10/24 02:57:39;;;;;;;10.60;4.80;;;;;;;5.15;100.00;99690.66;108904;1260;60387;-66
2023/10/24 03:00:28;;;;;;;10.40;4.80;;;;;;;5.18;100.00;99687.67;108874;1263;74089;-67
2023/10/24 03:03:18;;;;;;;11.20;4.70;;;;;;;5.17;100.00;99683.34;108820;1260;67846;-67
2023/10/24 03:06:17;;;;;;;12.60;4.70;;;;;;;5.17;100.00;99683.33;108716;1260;73468;-66
2023/10/24 03:09:05;;;;;;;12.50;4.50;;;;;;;5.17;100.00;99681.55;108795;1260;58317;-66
2023/10/24 03:11:52;;;;;;;10.40;4.60;;;;;;;5.19;100.00;99680.77;109046;1257;60078;-66
2023/10/24 03:14:41;;;;;;;12.00;4.30;;;;;;;5.20;100.00;99678.23;109091;1257;73288;-66
2023/10/24 03:17:28;;;;;;;9.10;4.30;;;;;;;5.18;100.00;99666.73;109082;1257;67692;-66
2023/10/24 03:20:16;;;;;;;14.20;4.80;;;;;;;5.23;100.00;99664.64;109115;1257;72836;-67
2023/10/24 03:23:04;;;;;;;12.10;5.10;;;;;;;5.25;100.00;99668.61;109107;1257;59320;-66
2023/10/24 03:25:52;;;;;;;11.30;5.10;;;;;;;5.20;100.00;99667.87;109010;1257;60478;-64
2023/10/24 03:28:39;;;;;;;12.50;5.30;;;;;;;5.17;100.00;99671.94;109020;1257;73452;-66
2023/10/24 03:31:27;;;;;;;11.90;5.00;;;;;;;5.12;100.00;99674.28;109079;1257;68791;-66
2023/10/24 03:34:17;;;;;;;12.10;4.90;;;;;;;5.18;100.00;99684.17;108973;1257;70513;-67
2023/10/24 03:37:05;;;;;;;11.50;5.00;;;;;;;5.20;100.00;99683.19;109093;1257;57820;-66
2023/10/24 03:39:53;;;;;;;11.40;5.20;;;;;;;5.21;100.00;99680.47;109106;1257;59711;-66
2023/10/24 03:42:41;;;;;;;11.10;4.90;;;;;;;5.22;100.00;99678.63;109097;1257;74002;-67
2023/10/24 03:45:29;;;;;;;13.10;5.80;;;;;;;5.25;100.00;99682.83;109040;1258;67949;-66
2023/10/24 03:48:17;;;;;;;12.50;4.90;;;;;;;5.25;100.00;99683.70;108988;1257;73696;-65
2023/10/24 03:51:04;;;;;;;11.30;5.00;;;;;;;5.23;100.00;99680.86;109092;1260;57263;-66
2023/10/24 03:53:53;;;;;;;10.60;5.20;;;;;;;5.22;100.00;99681.45;109145;1257;59717;-65
2023/10/24 03:56:42;;;;;;;10.90;4.80;;;;;;;5.22;100.00;99684.27;109044;1258;74234;-66
2023/10/24 03:59:30;;;;;;;11.70;5.30;;;;;;;5.20;100.00;99680.65;109041;1257;68869;-66
2023/10/24 04:02:18;;;;;;;10.80;5.60;;;;;;;5.17;100.00;99679.61;109112;1257;73512;-66
2023/10/24 04:05:07;;;;;;;10.50;5.10;;;;;;;5.12;100.00;99678.17;109137;1257;57416;-65
2023/10/24 04:07:54;;;;;;;10.90;5.00;;;;;;;5.09;100.00;99680.79;109075;1257;59345;-66
2023/10/24 04:10:42;;;;;;;10.90;4.40;;;;;;;5.06;100.00;99680.77;109092;1257;71997;-66
2023/10/24 04:13:30;;;;;;;10.20;4.30;;;;;;;5.08;100.00;99690.37;109075;1256;66758;-65
2023/10/24 04:16:19;;;;;;;10.60;4.60;;;;;;;5.06;100.00;99687.84;109126;1257;73748;-67
2023/10/24 04:19:07;;;;;;;13.30;5.90;;;;;;;5.03;100.00;99685.08;109117;1257;58007;-66
2023/10/24 04:21:55;;;;;;;13.10;5.60;;;;;;;5.00;100.00;99692.82;109115;1257;60505;-66
2023/10/24 04:24:42;;;;;;;15.70;5.30;;;;;;;4.99;100.00;99694.24;109120;1257;72180;-71
2023/10/24 04:27:30;;;;;;;11.30;4.90;;;;;;;4.96;100.00;99685.66;108993;1257;66530;-69
2023/10/24 04:30:18;;;;;;;10.00;5.10;;;;;;;5.04;100.00;99693.10;109079;1256;72679;-67
2023/10/24 04:33:09;;;;;;;10.50;5.00;;;;;;;5.05;100.00;99701.13;109150;1257;59567;-69
2023/10/24 04:35:57;;;;;;;9.90;4.50;;;;;;;5.05;100.00;99701.81;109041;1257;61215;-69
2023/10/24 04:38:45;;;;;;;10.60;4.40;;;;;;;5.07;100.00;99707.13;109019;1257;71023;-68
2023/10/24 04:41:33;;;;;;;12.00;4.80;;;;;;;5.05;100.00;99711.48;109082;1257;66455;-72
2023/10/24 04:44:21;;;;;;;17.30;4.80;;;;;;;5.02;100.00;99715.88;109044;1257;73291;-70
2023/10/24 04:47:09;;;;;;;12.20;5.30;;;;;;;4.98;100.00;99716.14;108963;1257;59320;-71
2023/10/24 04:49:57;;;;;;;11.10;5.40;;;;;;;4.92;100.00;99715.04;109068;1257;60352;-68
2023/10/24 04:52:45;;;;;;;12.00;5.40;;;;;;;4.89;100.00;99716.11;106817;1257;1002977;-68
2023/10/24 04:55:33;;;;;;;12.60;5.60;;;;;;;4.86;100.00;99704.02;108948;1257;68912;-71
2023/10/24 04:58:21;;;;;;;13.50;6.40;;;;;;;4.90;100.00;99707.31;108980;1257;72466;-72
2023/10/24 05:01:08;;;;;;;16.50;6.50;;;;;;;4.87;100.00;99706.24;109006;1257;57352;-72
2023/10/24 05:03:58;;;;;;;12.10;6.10;;;;;;;4.86;100.00;99710.67;109031;1257;59032;-71
2023/10/24 05:06:46;;;;;;;15.70;6.10;;;;;;;4.86;100.00;99709.42;108905;1257;73016;-70
2023/10/24 05:09:34;;;;;;;13.20;5.40;;;;;;;4.85;100.00;99711.62;108997;1257;67864;-70
2023/10/24 05:12:22;;;;;;;11.90;5.60;;;;;;;4.83;100.00;99712.64;109066;1257;71423;-67
2023/10/24 05:15:09;;;;;;;13.70;6.10;;;;;;;4.81;100.00;99709.23;109070;1256;57719;-71
2023/10/24 05:17:58;;;;;;;12.70;5.90;;;;;;;4.76;100.00;99709.65;108942;1257;58019;-70
2023/10/24 05:20:46;;;;;;;11.90;5.70;;;;;;;4.73;100.00;99715.48;109044;1257;73081;-69
2023/10/24 05:23:34;;;;;;;11.40;5.20;;;;;;;4.68;100.00;99715.26;108920;1257;66926;-70
2023/10/24 05:26:21;;;;;;;12.90;4.90;;;;;;;4.61;100.00;99719.00;108685;1257;261415;-69
2023/10/24 05:29:09;;;;;;;12.00;5.30;;;;;;;4.57;100.00;99727.34;108977;1257;57612;-69
2023/10/24 05:31:56;;;;;;;11.40;5.40;;;;;;;4.56;100.00;99731.60;109040;1257;61345;-69
2023/10/24 05:34:44;;;;;;;12.40;5.30;;;;;;;4.55;100.00;99729.21;109154;1256;71920;-71
2023/10/24 05:37:32;;;;;;;12.90;5.80;;;;;;;4.54;100.00;99730.48;109050;1257;67685;-70
2023/10/24 05:40:20;;;;;;;12.20;6.00;;;;;;;4.56;100.00;99733.00;109208;1257;72564;-69
2023/10/24 05:43:08;;;;;;;16.10;7.00;;;;;;;4.55;100.00;99721.63;108987;1257;57599;-72
2023/10/24 05:45:55;;;;;;;13.70;6.50;;;;;;;4.57;100.00;99724.00;109137;1261;60065;-68
2023/10/24 05:48:43;;;;;;;11.20;6.10;;;;;;;4.58;100.00;99715.49;109081;1257;74088;-71
2023/10/24 05:51:31;;;;;;;14.90;6.20;;;;;;;4.70;100.00;99727.80;109179;1256;68839;-68
2023/10/24 05:54:18;;;;;;;15.30;6.10;;;;;;;4.79;100.00;99722.53;109134;1257;73478;-67
2023/10/24 05:57:06;;;;;;;16.10;7.10;;;;;;;4.85;100.00;99720.59;109052;1256;57440;-68
2023/10/24 05:59:55;;;;;;;12.50;6.80;;;;;;;4.91;100.00;99718.30;109188;1257;58477;-72
2023/10/24 06:02:42;;;;;;;15.40;6.80;;;;;;;4.93;100.00;99718.38;109089;1257;73486;-69
2023/10/24 06:05:30;;;;;;;12.60;6.50;;;;;;;4.95;100.00;99719.46;109093;1257;66408;-71
2023/10/24 06:08:18;;;;;;;16.10;6.70;;;;;;;4.97;100.00;99718.30;108999;1257;72426;-71
2023/10/24 06:11:06;;;;;;;14.60;7.20;;;;;;;5.04;100.00;99725.29;109173;1257;60423;-68
2023/10/24 06:13:53;;;;;;;12.80;6.70;;;;;;;5.12;100.00;99711.98;109170;1256;61817;-70
2023/10/24 06:16:41;;;;;;;15.20;6.50;;;;;;;5.20;100.00;99703.89;109046;1257;74150;-69
2023/10/24 06:19:29;;;;;;;16.50;8.00;;;;;;;5.30;100.00;99710.32;109165;1257;68884;-71
2023/10/24 06:22:17;;;;;;;20.10;11.30;;;;;;;5.39;100.00;99709.03;109073;1257;73428;-71
2023/10/24 06:25:05;;;;;;;19.30;10.30;;;;;;;5.49;100.00;99709.70;109049;1256;59320;-71
2023/10/24 06:27:53;;;;;;;16.90;9.00;;;;;;;5.62;100.00;99706.59;109099;1257;60071;-69
2023/10/24 06:30:41;;;;;;;18.30;9.70;;;;;;;5.74;100.00;99703.71;108453;1256;1002092;-71
2023/10/24 06:33:32;;;;;;;19.60;9.90;;;;;;;5.84;100.00;99698.05;109202;1256;68058;-71
2023/10/24 06:36:22;;;;;;;21.40;10.40;;;;;;;5.89;100.00;99697.84;109200;1257;71452;-70
2023/10/24 06:39:10;;;;;;;19.00;10.40;;;;;;;5.94;100.00;99702.98;109042;1257;58368;-68
2023/10/24 06:41:58;;;;;;;18.90;10.20;;;;;;;5.94;100.00;99701.91;109047;1257;59864;-71
2023/10/24 06:44:46;;;;;;;20.90;9.20;;;;;;;5.99;100.00;99701.28;109035;1257;74113;-69
2023/10/24 06:47:34;;;;;;;17.80;9.60;;;;;;;6.05;100.00;99701.95;109207;1256;66606;-68
2023/10/24 06:50:21;;;;;;;16.40;7.00;;;;;;;6.09;100.00;99697.98;109205;1257;72733;-71
2023/10/24 06:53:11;;;;;;;14.20;7.10;;;;;;;6.12;100.00;99693.38;109027;1257;57375;-68
2023/10/24 06:56:03;;;;;;;15.20;7.50;;;;;;;6.17;100.00;99690.80;109079;1256;60052;-69
2023/10/24 06:58:51;;;;;;;14.40;7.00;;;;;;;6.20;100.00;99690.77;109039;1261;72843;-70
2023/10/24 07:01:39;;;;;;;14.90;7.50;;;;;;;6.28;100.00;99688.16;109055;1257;67862;-70
2023/10/24 07:04:27;;;;;;;14.20;7.00;;;;;;;6.36;100.00;99678.13;109165;1257;72865;-68
2023/10/24 07:07:15;;;;;;;14.90;7.30;;;;;;;6.42;100.00;99679.79;109187;1256;57619;-69
2023/10/24 07:10:03;;;;;;;18.50;7.40;;;;;;;6.45;100.00;99681.53;109103;1257;58694;-69
2023/10/24 07:12:51;;;;;;;17.70;7.50;;;;;;;6.48;100.00;99681.56;109146;1256;73670;-71
2023/10/24 07:15:39;;;;;;;13.90;6.50;;;;;;;6.53;100.00;99684.52;109092;1257;67678;-70
2023/10/24 07:18:27;;;;;;;13.60;7.60;;;;;;;6.61;100.00;99677.33;109176;1257;73588;-68
2023/10/24 07:21:16;;;;;;;18.00;8.30;;;;;;;6.75;100.00;99678.71;109141;1257;59366;-70
2023/10/24 07:24:04;;;;;;;20.30;10.70;;;;;;;6.88;100.00;99678.17;109070;1260;58841;-67
2023/10/24 07:26:51;;;;;;;18.80;8.30;;;;;;;6.99;100.00;99680.77;109192;1257;71834;-71
2023/10/24 07:29:39;;;;;;;22.80;10.60;;;;;;;7.08;100.00;99687.21;109160;1257;65623;-70
2023/10/24 07:32:27;;;;;;;21.00;10.40;;;;;;;7.13;100.00;99692.11;109088;1257;70203;-69
2023/10/24 07:35:15;;;;;;;19.10;10.00;;;;;;;7.21;100.00;99700.41;109224;1257;57876;-71
2023/10/24 07:38:02;;;;;;;18.00;9.80;;;;;;;7.28;100.00;99699.58;109235;1257;60354;-69
2023/10/24 07:40:51;;;;;;;17.00;7.70;;;;;;;7.32;100.00;99700.34;109196;1256;74029;-69
2023/10/24 07:43:38;;;;;;;22.70;7.20;;;;;;;7.40;100.00;99701.40;109224;1257;67814;-69
2023/10/24 07:46:26;;;;;;;17.80;7.40;;;;;;;7.46;100.00;99702.56;109174;1256;73455;-68
2023/10/24 07:49:14;;;;;;;18.20;7.40;;;;;;;7.55;100.00;99703.71;108991;1256;58139;-70
2023/10/24 07:52:03;;;;;;;16.80;7.60;;;;;;;7.61;100.00;99704.30;109202;1258;61495;-67
2023/10/24 07:54:51;;;;;;;21.00;9.20;;;;;;;7.66;100.00;99700.24;109204;1257;71819;-69
2023/10/24 07:57:38;;;;;;;23.10;7.80;;;;;;;7.76;100.00;99698.47;109188;1257;67808;-69
2023/10/24 08:00:28;;;;;;;22.70;9.00;;;;;;;7.94;100.00;99699.17;109169;1257;72702;-69
2023/10/24 08:03:17;;;;;;;18.20;8.60;;;;;;;8.24;100.00;99687.11;109196;1257;58006;-69
2023/10/24 08:06:05;;;;;;;24.60;8.80;;;;;;;8.85;100.00;99680.73;109100;1257;58775;-70
2023/10/24 08:08:53;;;;;;;18.30;7.90;;;;;;;9.49;100.00;99675.50;109017;1257;72280;-71
2023/10/24 08:11:41;;;;;;;22.00;8.30;;;;;;;9.82;99.11;99672.46;109214;1257;67654;-71
2023/10/24 08:14:28;;;;;;;15.90;7.50;;;;;;;10.20;96.96;99672.58;109073;1257;71961;-68
2023/10/24 08:17:16;;;;;;;19.50;7.70;;;;;;;10.85;94.97;99654.27;109036;1257;58111;-68
2023/10/24 08:20:05;;;;;;;18.80;8.30;;;;;;;11.98;92.82;99660.21;109157;1257;61059;-68
2023/10/24 08:22:53;;;;;;;26.70;8.60;;;;;;;14.22;86.68;99657.85;109188;1256;71922;-71
2023/10/24 08:25:40;;;;;;;15.70;7.40;;;;;;;16.05;78.26;99659.66;109196;1256;66419;-69
2023/10/24 08:28:28;;;;;;;16.40;7.20;;;;;;;17.74;70.56;99651.66;109013;1257;71819;-69
2023/10/24 08:31:16;;;;;;;17.50;6.20;;;;;;;19.57;63.33;99643.27;109135;1256;57760;-69
2023/10/24 08:34:04;;;;;;;13.10;6.20;;;;;;;21.10;54.29;99638.78;109134;1258;60090;-70
2023/10/24 08:36:52;;;;;;;12.80;4.70;;;;;;;22.30;48.81;99631.82;109193;1256;73349;-69
2023/10/24 08:39:40;;;;;;;11.90;4.50;;;;;;;23.17;43.40;99619.92;109171;1257;66913;-68
2023/10/24 08:42:30;;;;;;;12.80;4.00;;;;;;;24.05;42.17;99609.13;109089;1256;73676;-68
2023/10/24 08:45:21;;;;;;;8.60;3.60;;;;;;;24.73;39.82;99607.74;109255;1257;57290;-69
2023/10/24 08:48:09;;;;;;;9.90;3.30;;;;;;;25.30;38.46;99602.15;109158;1257;59005;-67
2023/10/24 08:50:57;;;;;;;10.20;2.80;;;;;;;26.05;36.53;99600.82;109146;1255;74094;-70
2023/10/24 08:53:45;;;;;;;8.10;1.90;;;;;;;26.68;34.61;99602.35;109233;1257;67855;-68
2023/10/24 08:56:37;;;;;;;8.00;2.00;;;;;;;27.08;33.19;99593.77;109203;1257;73714;-70
2023/10/24 08:59:29;;;;;;;7.20;1.90;;;;;;;27.35;32.00;99594.30;109107;1256;58445;-67
2023/10/24 09:02:19;;;;;;;8.20;1.70;;;;;;;27.45;30.90;99601.90;109228;1256;61335;-67
2023/10/24 09:05:13;;;;;;;8.40;2.30;;;;;;;27.75;30.90;99599.46;109082;1257;73033;-69
2023/10/24 09:08:02;;;;;;;7.10;2.00;;;;;;;27.77;29.91;99599.68;109075;1257;68577;-70
2023/10/24 09:10:50;;;;;;;8.30;2.00;;;;;;;27.96;30.08;99602.50;109123;1260;73114;-67
2023/10/24 09:13:39;;;;;;;8.20;2.10;;;;;;;28.13;29.38;99596.80;109187;1257;58412;-67
2023/10/24 09:16:27;;;;;;;10.20;2.10;;;;;;;28.38;28.94;99590.94;109028;1257;60717;-70
2023/10/24 09:19:19;;;;;;;7.60;2.00;;;;;;;28.56;28.65;99585.37;109088;1257;73828;-68
2023/10/24 09:22:09;;;;;;;8.50;2.30;;;;;;;28.73;27.84;99582.48;109303;1257;66961;-70
2023/10/24 09:24:58;;;;;;;7.40;1.90;;;;;;;29.01;28.31;99577.34;108993;1257;74320;-69
2023/10/24 09:27:46;;;;;;;8.50;1.80;;;;;;;29.26;27.30;99578.61;109249;1257;58072;-70
2023/10/24 09:30:34;;;;;;;7.30;1.60;;;;;;;29.62;26.40;99578.45;109099;1257;60079;-69
2023/10/24 09:33:25;;;;;;;8.40;2.00;;;;;;;29.69;25.94;99573.65;109234;1256;74010;-69
2023/10/24 09:36:24;;;;;;;7.60;1.70;;;;;;;29.95;26.42;99575.64;109237;1257;66410;-69
2023/10/24 09:39:14;;;;;;;6.60;1.60;;;;;;;30.07;25.32;99574.48;109135;1256;73720;-67
2023/10/24 09:42:02;;;;;;;6.90;1.60;;;;;;;30.18;25.21;99576.12;109140;1258;57978;-68
2023/10/24 09:44:54;;;;;;;7.00;1.20;;;;;;;30.35;25.37;99565.35;109092;1257;61074;-67
2023/10/24 09:47:42;;;;;;;6.70;1.60;;;;;;;30.21;25.01;99569.56;109267;1256;72986;-70
2023/10/24 09:50:32;;;;;;;6.40;1.50;;;;;;;30.15;24.99;99567.53;109168;1257;68054;-71
2023/10/24 09:53:20;;;;;;;6.30;1.20;;;;;;;30.01;25.05;99561.88;109236;1257;72547;-71
2023/10/24 09:56:08;;;;;;;10.00;1.70;;;;;;;29.89;25.11;99550.08;109391;1256;57611;-67
2023/10/24 09:58:58;;;;;;;8.00;1.90;;;;;;;29.76;24.47;99543.29;109400;1257;60602;-68
2023/10/24 10:01:46;;;;;;;5.90;1.60;;;;;;;30.27;24.85;99536.56;109287;1256;71973;-68
2023/10/24 10:04:54;;;;;;;6.90;1.50;;;;;;;30.32;24.70;99539.20;109243;1260;68044;-66
2023/10/24 10:07:48;;;;;;;7.00;1.80;;;;;;;30.35;24.64;99536.58;109038;1257;72793;-68
2023/10/24 10:10:42;;;;;;;7.70;1.70;;;;;;;30.27;24.71;99535.48;109092;1258;58893;-69
2023/10/24 10:13:38;;;;;;;8.50;2.10;;;;;;;29.98;24.23;99534.02;109151;1258;60157;-67
2023/10/24 10:16:49;;;;;;;7.00;1.70;;;;;;;29.76;24.54;99526.45;109103;1257;73849;-69
2023/10/24 10:19:51;;;;;;;9.00;2.40;;;;;;;29.58;25.44;99516.95;109258;1256;67728;-69
2023/10/24 10:23:04;;;;;;;9.70;3.00;;;;;;;29.11;25.48;99515.02;109122;1256;72562;-69
2023/10/24 10:26:06;;;;;;;8.50;2.60;;;;;;;28.46;26.47;99517.48;109077;1257;57789;-71
2023/10/24 10:29:01;;;;;;;8.20;2.50;;;;;;;27.71;27.30;99514.70;109100;1260;60441;-69
2023/10/24 10:32:01;;;;;;;8.20;2.50;;;;;;;26.82;27.95;99509.44;109187;1257;72784;-68
2023/10/24 10:35:12;;;;;;;10.80;2.70;;;;;;;26.85;28.05;99512.52;109294;1256;68621;-69
2023/10/24 10:38:04;;;;;;;10.80;3.60;;;;;;;27.11;27.74;99509.14;109210;1256;72561;-68
2023/10/24 10:40:52;;;;;;;9.40;2.90;;;;;;;27.18;28.02;99496.21;109109;1257;58127;-68
2023/10/24 10:43:40;;;;;;;10.00;2.70;;;;;;;27.35;27.61;99492.03;109240;1256;61380;-69
2023/10/24 10:46:32;;;;;;;11.60;3.40;;;;;;;27.46;27.95;99482.73;109254;1257;72482;-70
2023/10/24 10:49:20;;;;;;;10.60;3.60;;;;;;;27.43;28.43;99477.30;109264;1257;66391;-67
2023/10/24 10:52:32;;;;;;;15.10;4.70;;;;;;;27.22;28.53;99478.81;109234;1257;72712;-69
2023/10/24 10:56:07;;;;;;;12.40;5.80;;;;;;;26.84;29.05;99477.08;109234;1258;57621;-68
2023/10/24 10:59:03;;;;;;;11.30;4.80;;;;;;;26.12;29.86;99476.15;108791;1263;60160;-67
2023/10/24 11:02:12;;;;;;;15.90;5.60;;;;;;;25.36;30.74;99473.80;108812;1264;72853;-70
2023/10/24 11:05:01;;;;;;;11.80;4.50;;;;;;;24.47;32.13;99467.17;108815;1263;66437;-70
2023/10/24 11:07:54;;;;;;;12.90;4.20;;;;;;;23.44;33.63;99473.56;108750;1263;72559;-71
2023/10/24 11:10:55;;;;;;;12.20;4.10;;;;;;;22.60;34.75;99470.66;108724;1264;57355;-72
2023/10/24 11:13:46;;;;;;;11.30;4.00;;;;;;;21.93;36.03;99467.10;108756;1263;59041;-72
2023/10/24 11:16:35;;;;;;;10.20;3.40;;;;;;;21.39;37.10;99471.67;108786;1264;73751;-69
2023/10/24 11:19:28;;;;;;;10.40;4.30;;;;;;;20.97;38.04;99474.61;108808;1263;66913;-69
2023/10/24 11:22:15;;;;;;;10.20;4.20;;;;;;;20.64;39.04;99474.18;108812;1263;72623;-72
2023/10/24 11:25:10;;;;;;;13.30;4.90;;;;;;;20.21;40.06;99476.42;108775;1263;57656;-70
2023/10/24 11:28:08;;;;;;;10.40;4.10;;;;;;;19.90;40.69;99473.11;108688;1263;60301;-68
2023/10/24 11:30:57;;;;;;;10.80;3.80;;;;;;;19.47;41.47;99474.89;108819;1264;73095;-70
2023/10/24 11:33:44;;;;;;;11.40;3.90;;;;;;;18.93;42.60;99478.70;109110;1257;67953;-66
2023/10/24 11:36:33;;;;;;;12.30;3.60;;;;;;;18.41;43.47;99487.44;109256;1257;71020;-68
2023/10/24 11:39:20;;;;;;;10.80;3.50;;;;;;;18.15;44.51;99492.94;109116;1256;58753;-68
2023/10/24 11:42:08;;;;;;;9.90;2.90;;;;;;;18.02;44.87;99495.24;109310;1256;58697;-69
2023/10/24 11:44:56;;;;;;;8.00;2.40;;;;;;;17.87;45.09;99486.41;109256;1257;71752;-68
2023/10/24 11:47:43;;;;;;;8.70;3.10;;;;;;;17.76;45.50;99481.98;109274;1256;68900;-67
2023/10/24 11:50:45;;;;;;;9.70;2.60;;;;;;;17.69;45.77;99478.78;109123;1257;72729;-68
2023/10/24 11:53:34;;;;;;;7.60;2.90;;;;;;;17.55;46.74;99476.70;109158;1256;57312;-68
2023/10/24 11:56:21;;;;;;;10.20;2.50;;;;;;;17.52;47.16;99480.52;109153;1256;60973;-68
2023/10/24 11:59:10;;;;;;;9.90;3.00;;;;;;;17.38;47.20;99486.13;109145;1257;72791;-69
2023/10/24 12:01:57;;;;;;;8.20;2.50;;;;;;;17.04;47.62;99478.77;109228;1257;66279;-66
2023/10/24 12:04:50;;;;;;;11.00;2.90;;;;;;;16.71;48.56;99467.74;109267;1256;72552;-68
2023/10/24 12:07:42;;;;;;;9.50;2.80;;;;;;;16.45;49.54;99462.14;109191;1256;58057;-67
2023/10/24 12:10:32;;;;;;;10.70;3.50;;;;;;;16.33;50.26;99458.43;109298;1256;60376;-72
2023/10/24 12:13:23;;;;;;;8.10;2.90;;;;;;;16.33;50.24;99456.42;109133;1257;72780;-68
2023/10/24 12:16:11;;;;;;;9.80;2.60;;;;;;;16.39;49.94;99455.55;109128;1257;66598;-68
2023/10/24 12:18:59;;;;;;;9.10;2.60;;;;;;;16.50;50.09;99450.40;109108;1256;72412;-68
2023/10/24 12:21:47;;;;;;;8.80;2.70;;;;;;;16.67;50.02;99447.10;109271;1257;58114;-70
2023/10/24 12:24:35;;;;;;;9.90;2.80;;;;;;;16.75;50.21;99444.59;109129;1256;60400;-70
2023/10/24 12:27:23;;;;;;;9.90;3.30;;;;;;;16.78;50.15;99440.65;109291;1257;72851;-69
2023/10/24 12:30:11;;;;;;;8.90;2.40;;;;;;;16.90;49.84;99438.56;109105;1256;66419;-69
2023/10/24 12:32:59;;;;;;;10.10;2.40;;;;;;;17.04;48.62;99429.34;109284;1256;73727;-70
2023/10/24 12:35:47;;;;;;;9.70;2.90;;;;;;;17.02;48.76;99423.39;109136;1257;57596;-68
2023/10/24 12:38:37;;;;;;;8.70;2.50;;;;;;;17.06;49.00;99421.70;109096;1256;59659;-67
2023/10/24 12:41:25;;;;;;;7.70;2.50;;;;;;;17.10;48.59;99416.61;109106;1257;72573;-67
2023/10/24 12:44:13;;;;;;;10.00;2.90;;;;;;;16.90;49.04;99413.14;109253;1256;67910;-68
2023/10/24 12:47:01;;;;;;;7.00;2.50;;;;;;;16.61;49.77;99412.45;109171;1256;72365;-69
2023/10/24 12:49:49;;;;;;;9.20;2.90;;;;;;;16.35;50.75;99409.70;109518;1256;58801;-67
2023/10/24 12:52:36;;;;;;;9.90;3.90;;;;;;;16.00;51.83;99411.22;109493;1256;58723;-68
2023/10/24 12:55:24;;;;;;;9.90;3.50;;;;;;;15.75;52.77;99405.16;109306;1257;71477;-68
2023/10/24 12:58:12;;;;;;;8.00;2.90;;;;;;;15.48;54.01;99402.41;109159;1257;69524;-68
2023/10/24 13:01:00;;;;;;;7.70;3.10;;;;;;;15.23;54.47;99397.69;109080;1256;72537;-67
2023/10/24 13:03:48;;;;;;;7.70;3.20;;;;;;;15.01;55.23;99404.75;109118;1256;57536;-67